Data for 01/18/2005

Time Sea-Level Adjusted Pressure Absolute Pressure Temperature Relative Humidity Dew Point   
(mb) (inHg) (mb) (inHg) (C) (F) (%) (C) (F)
00:05 1020 30.12 849 25.07 3.9 39 61 -3 26.6
00:10 1020 30.12 849 25.07 4 39.2 60 -3.1 26.4
00:15 1020 30.12 849 25.07 4 39.3 61 -2.9 26.8
00:20 1020 30.12 849 25.07 4.2 39.6 59 -3 26.6
00:25 1019 30.09 849 25.07 4.2 39.6 60 -2.9 26.8
00:30 1019 30.09 849 25.07 4.2 39.5 62 -2.5 27.5
00:35 1019 30.09 848 25.04 4.4 39.8 61 -2.5 27.5
00:40 1019 30.09 848 25.04 4.9 40.9 60 -2.1 28.2
00:45 1019 30.09 848 25.04 5.2 41.4 60 -1.8 28.8
00:50 1019 30.09 848 25.04 5.6 42 62 -1.2 29.8
00:55 1019 30.09 848 25.04 4.9 40.8 65 -1.2 29.8
01:00 1019 30.09 848 25.04 5.2 41.3 62 -1.4 29.4
01:05 1019 30.09 848 25.04 6.3 43.3 59 -1 30.2
01:10 1019 30.09 848 25.04 7.1 44.9 57 -0.9 30.4
01:15 1019 30.09 848 25.04 7.5 45.6 56 -0.7 30.8
01:20 1019 30.09 848 25.04 7.6 45.6 57 -0.5 31.1
01:25 1019 30.09 848 25.04 7.5 45.5 57 -0.5 31.1
01:30 1019 30.09 848 25.04 7.6 45.6 55 -0.8 30.6
01:35 1019 30.09 848 25.04 7.7 45.9 56 -0.5 31.1
01:40 1019 30.09 848 25.04 7.9 46.2 54 -0.8 30.6
01:45 1019 30.09 848 25.04 8.5 47.4 53 -0.6 30.9
01:50 1019 30.09 848 25.04 8.5 47.3 53 -0.4 31.2
01:55 1019 30.09 849 25.07 8.3 47 55 -0.2 31.6
02:00 1019 30.09 849 25.07 8 46.5 55 -0.3 31.4
02:05 1019 30.09 849 25.07 8 46.4 56 -0.3 31.4
02:10 1019 30.09 848 25.04 8 46.3 56 -0.2 31.7
02:15 1019 30.09 848 25.04 7.8 46 57 -0.1 31.7
02:20 1019 30.09 848 25.04 8 46.4 56 -0.1 31.7
02:25 1019 30.09 848 25.04 8.2 46.7 56 -0 32
02:30 1019 30.09 848 25.04 8.2 46.7 56 -0.1 31.9
02:35 1019 30.09 848 25.04 8.3 46.9 56 -0 31.9
02:40 1019 30.09 848 25.04 8.4 47.1 55 -0.1 31.8
02:45 1019 30.09 848 25.04 8.4 47.1 55 -0.2 31.7
02:50 1019 30.09 848 25.04 8.3 46.9 56 0 32
02:55 1019 30.09 848 25.04 8.2 46.8 56 0 32
03:00 1019 30.09 848 25.04 8.3 46.9 55 -0.1 31.8
03:05 1019 30.09 848 25.04 8.5 47.3 55 0.1 32.2
03:10 1019 30.09 848 25.04 8.4 47.1 55 -0.1 31.7
03:15 1019 30.09 848 25.04 8.5 47.4 55 -0 31.9
03:20 1019 30.09 848 25.04 8.6 47.4 55 0 32
03:25 1019 30.09 848 25.04 8.6 47.4 55 -0 32
03:30 1019 30.09 848 25.04 8.6 47.5 55 0.2 32.3
03:35 1019 30.09 848 25.04 8.5 47.2 56 0.1 32.2
03:40 1019 30.09 849 25.07 8.8 47.8 54 -0 31.9
03:45 1020 30.12 849 25.07 9 48.3 54 0.4 32.7
03:50 1019 30.09 849 25.07 8.9 47.9 55 0.2 32.4
03:55 1019 30.09 849 25.07 8.7 47.7 56 0.4 32.8
04:00 1019 30.09 848 25.04 8.7 47.7 55 0.3 32.5
04:05 1019 30.09 848 25.04 8.8 47.9 56 0.5 33
04:10 1019 30.09 848 25.04 8.9 48 55 0.4 32.8
04:15 1019 30.09 848 25.04 9.3 48.8 54 0.6 33.1
04:20 1019 30.09 848 25.04 9.3 48.7 54 0.6 33
04:25 1019 30.09 849 25.07 9.4 49 54 0.6 33.1
04:30 1019 30.09 849 25.07 9.5 49.1 53 0.5 32.8
04:35 1019 30.09 849 25.07 9.7 49.4 54 0.9 33.6
04:40 1020 30.12 849 25.07 9.2 48.6 55 0.6 33.1
04:45 1020 30.12 849 25.07 9.1 48.5 54 0.5 32.8
04:50 1019 30.09 849 25.07 9.3 48.7 54 0.5 32.9
04:55 1019 30.09 849 25.07 9.3 48.8 54 0.4 32.8
05:00 1019 30.09 848 25.04 9.6 49.2 53 0.6 33
05:05 1019 30.09 848 25.04 9.3 48.8 55 0.8 33.4
05:10 1019 30.09 848 25.04 9.3 48.8 54 0.6 33.1
05:15 1019 30.09 848 25.04 9.2 48.6 56 0.9 33.6
05:20 1019 30.09 849 25.07 8.6 47.6 58 0.8 33.4
05:25 1019 30.09 849 25.07 8.8 47.8 56 0.6 33.1
05:30 1019 30.09 849 25.07 8.8 47.9 56 0.7 33.2
05:35 1019 30.09 848 25.04 8.8 47.8 57 0.8 33.4
05:40 1019 30.09 849 25.07 8.8 47.8 57 0.7 33.2
05:45 1019 30.09 849 25.07 8.8 47.9 57 0.8 33.4
05:50 1019 30.09 849 25.07 8.8 47.9 57 0.8 33.4
05:55 1020 30.12 849 25.07 8.6 47.4 59 0.9 33.7
06:00 1020 30.12 849 25.07 8 46.4 60 0.8 33.4
06:05 1020 30.12 849 25.07 8 46.4 59 0.6 33.1
06:10 1019 30.09 849 25.07 8.1 46.6 59 0.5 33
06:15 1019 30.09 849 25.07 8.2 46.8 58 0.5 32.9
06:20 1019 30.09 848 25.04 8.3 46.9 58 0.5 33
06:25 1019 30.09 848 25.04 8.3 46.9 58 0.5 32.9
06:30 1019 30.09 848 25.04 8.4 47.1 58 0.6 33.1
06:35 1019 30.09 848 25.04 8.5 47.3 58 0.7 33.2
06:40 1019 30.09 848 25.04 8.5 47.4 58 0.7 33.2
06:45 1019 30.09 849 25.07 8.5 47.4 58 0.7 33.3
06:50 1019 30.09 848 25.04 8.7 47.6 57 0.7 33.3
06:55 1019 30.09 849 25.07 8.7 47.7 57 0.7 33.3
07:00 1019 30.09 849 25.07 8.7 47.7 58 0.9 33.5
07:05 1019 30.09 849 25.07 8.7 47.6 58 0.8 33.5
07:10 1019 30.09 849 25.07 8.7 47.6 58 0.8 33.4
07:15 1019 30.09 849 25.07 8.6 47.4 58 0.9 33.6
07:20 1020 30.12 849 25.07 8.5 47.3 59 0.9 33.6
07:25 1020 30.12 849 25.07 8.5 47.3 59 0.8 33.5
07:30 1020 30.12 849 25.07 8.6 47.4 59 0.9 33.7
07:35 1020 30.12 849 25.07 8.5 47.3 59 1 33.8
07:40 1020 30.12 849 25.07 8.3 46.9 60 0.9 33.6
07:45 1020 30.12 849 25.07 7.9 46.2 62 1.1 34.1
07:50 1020 30.12 849 25.07 7.4 45.2 64 1 33.7
07:55 1020 30.12 849 25.07 7.2 44.9 65 0.9 33.7
08:00 1020 30.12 849 25.07 7.6 45.6 62 0.7 33.2
08:05 1020 30.12 849 25.07 8.1 46.5 60 0.7 33.3
08:10 1020 30.12 850 25.1 8.6 47.4 58 0.8 33.5
08:15 1020 30.12 850 25.1 8.9 47.9 58 1 33.7
08:20 1021 30.15 850 25.1 8.6 47.6 58 1 33.7
08:25 1021 30.15 850 25.1 8.3 46.9 60 1 33.8
08:30 1021 30.15 850 25.1 8 46.5 61 0.9 33.7
08:35 1021 30.15 850 25.1 8.1 46.6 60 0.9 33.5
08:40 1021 30.15 850 25.1 8.3 46.9 60 0.9 33.6
08:45 1021 30.15 850 25.1 8.2 46.7 61 1 33.9
08:50 1021 30.15 850 25.1 8.1 46.6 60 0.9 33.7
08:55 1021 30.15 850 25.1 8.1 46.6 60 0.9 33.6
09:00 1021 30.15 850 25.1 8 46.5 61 0.9 33.6
09:05 1021 30.15 850 25.1 7.8 46.1 62 0.9 33.7
09:10 1021 30.15 851 25.13 7.6 45.7 63 0.9 33.7
09:15 1021 30.15 851 25.13 7.5 45.5 62 0.8 33.5
09:20 1022 30.18 851 25.13 7.5 45.6 63 0.9 33.6
09:25 1022 30.18 851 25.13 7.6 45.7 62 0.9 33.7
09:30 1022 30.18 851 25.13 7.6 45.6 63 1.1 33.9
09:35 1022 30.18 851 25.13 7.4 45.4 64 1 33.9
09:40 1022 30.18 851 25.13 7.4 45.4 64 1.1 34
09:45 1022 30.18 851 25.13 7.7 45.8 63 1 33.8
09:50 1022 30.18 851 25.13 7.8 46 62 1.1 34
09:55 1022 30.18 851 25.13 8 46.3 63 1.3 34.3
10:00 1022 30.18 851 25.13 8.1 46.5 62 1.2 34.1
10:05 1022 30.18 851 25.13 8.3 46.9 61 1.3 34.4
10:10 1022 30.18 851 25.13 8.4 47.1 61 1.3 34.4
10:15 1022 30.18 851 25.13 8.5 47.3 61 1.5 34.6
10:20 1022 30.18 851 25.13 8.3 47 62 1.5 34.6
10:25 1022 30.18 851 25.13 8.3 47 62 1.4 34.6
10:30 1022 30.18 851 25.13 8.8 47.8 60 1.6 34.8
10:35 1022 30.18 852 25.16 9 48.2 60 1.7 35
10:40 1022 30.18 852 25.16 9.1 48.4 60 1.8 35.2
10:45 1022 30.18 852 25.16 9 48.2 60 1.7 35.1
10:50 1022 30.18 852 25.16 8.8 47.8 62 1.8 35.3
10:55 1023 30.21 852 25.16 8.6 47.6 61 1.6 35
11:00 1023 30.21 852 25.16 8.7 47.6 61 1.7 35.1
11:05 1023 30.21 852 25.16 8.7 47.7 62 1.8 35.2
11:10 1023 30.21 852 25.16 8.6 47.5 62 1.8 35.2
11:15 1023 30.21 852 25.16 8.6 47.4 63 1.9 35.4
11:20 1023 30.21 852 25.16 8.6 47.4 63 1.8 35.3
11:25 1023 30.21 852 25.16 8.5 47.4 62 1.8 35.3
11:30 1023 30.21 852 25.16 8.7 47.7 62 1.9 35.4
11:35 1023 30.21 852 25.16 9 48.1 61 1.9 35.4
11:40 1023 30.21 852 25.16 9 48.2 61 1.9 35.4
11:45 1023 30.21 852 25.16 9 48.3 61 2 35.5
11:50 1023 30.21 852 25.16 9 48.2 61 2 35.6
11:55 1023 30.21 852 25.16 8.9 48 61 1.9 35.5
12:00 1023 30.21 852 25.16 8.8 47.8 62 1.9 35.5
12:05 1023 30.21 852 25.16 8.6 47.6 63 2 35.7
12:10 1023 30.21 852 25.16 8.5 47.4 63 2 35.5
12:15 1023 30.21 852 25.16 8.7 47.7 63 2.1 35.8
12:20 1023 30.21 852 25.16 8.7 47.7 64 2.2 36
12:25 1023 30.21 852 25.16 8.7 47.7 63 2.2 35.9
12:30 1023 30.21 852 25.16 8.8 47.9 64 2.3 36.2
12:35 1023 30.21 852 25.16 8.9 48 63 2.3 36.2
12:40 1023 30.21 852 25.16 9 48.2 64 2.6 36.7
12:45 1023 30.21 852 25.16 8.6 47.5 65 2.5 36.4
12:50 1023 30.21 852 25.16 8.8 47.8 65 2.6 36.6
12:55 1023 30.21 852 25.16 9.1 48.4 64 2.7 36.9
13:00 1023 30.21 852 25.16 9.3 48.8 63 2.7 36.9
13:05 1023 30.21 852 25.16 9.4 48.8 65 3.2 37.8
13:10 1023 30.21 852 25.16 8.4 47.1 68 2.9 37.2
13:15 1023 30.21 852 25.16 7.9 46.2 71 3 37.3
13:20 1023 30.21 852 25.16 8 46.4 69 2.7 36.9
13:25 1023 30.21 852 25.16 8.6 47.4 67 2.8 37
13:30 1023 30.21 852 25.16 9 48.2 68 3.5 38.3
13:35 1023 30.21 852 25.16 8.8 47.9 68 3.3 37.9
13:40 1023 30.21 852 25.16 9 48.3 67 3.2 37.8
13:45 1023 30.21 852 25.16 9.1 48.4 66 3.1 37.5
13:50 1023 30.21 852 25.16 9.4 48.9 64 3.1 37.5
13:55 1023 30.21 852 25.16 9.3 48.8 67 3.7 38.6
14:00 1022 30.18 852 25.16 9.1 48.4 68 3.6 38.4
14:05 1023 30.21 852 25.16 9.8 49.6 63 3.1 37.6
14:10 1023 30.21 852 25.16 10.5 50.9 61 3.3 38
14:15 1022 30.18 852 25.16 10.3 50.5 63 3.5 38.3
14:20 1022 30.18 852 25.16 10.2 50.3 63 3.5 38.3
14:25 1022 30.18 852 25.16 9.9 49.8 64 3.4 38.1
14:30 1022 30.18 852 25.16 9.7 49.5 65 3.6 38.4
14:35 1022 30.18 851 25.13 9.7 49.5 64 3.4 38.1
14:40 1022 30.18 851 25.13 10 49.9 61 2.8 37
14:45 1022 30.18 851 25.13 10.1 50.2 61 3 37.5
14:50 1022 30.18 851 25.13 10.1 50.2 61 2.9 37.3
14:55 1022 30.18 852 25.16 10.1 50.1 60 2.8 37
15:00 1022 30.18 852 25.16 10.2 50.3 60 2.8 37
15:05 1023 30.21 852 25.16 10.1 50.3 60 2.9 37.2
15:10 1022 30.18 852 25.16 10.1 50.1 61 3 37.4
15:15 1023 30.21 852 25.16 10.1 50.1 61 2.9 37.3
15:20 1023 30.21 852 25.16 10 50 60 2.6 36.7
15:25 1023 30.21 852 25.16 10 50 60 2.7 36.8
15:30 1023 30.21 852 25.16 9.9 49.8 60 2.5 36.6
15:35 1023 30.21 852 25.16 9.7 49.5 60 2.4 36.3
15:40 1023 30.21 852 25.16 9.6 49.3 61 2.4 36.4
15:45 1023 30.21 852 25.16 9.4 48.9 62 2.5 36.4
15:50 1023 30.21 852 25.16 9.2 48.5 63 2.5 36.6
15:55 1023 30.21 852 25.16 9.1 48.3 64 2.6 36.6
16:00 1023 30.21 852 25.16 9 48.2 63 2.3 36.2
16:05 1023 30.21 852 25.16 9.3 48.7 61 2.2 35.9
16:10 1023 30.21 852 25.16 9.6 49.2 59 2.1 35.8
16:15 1023 30.21 852 25.16 9.8 49.6 59 2.1 35.8
16:20 1023 30.21 852 25.16 9.7 49.5 59 2.1 35.9
16:25 1023 30.21 852 25.16 9.7 49.5 58 2 35.5
16:30 1023 30.21 852 25.16 9.8 49.7 59 2.1 35.9
16:35 1023 30.21 852 25.16 9.8 49.7 58 1.9 35.5
16:40 1023 30.21 852 25.16 9.9 49.8 58 2.1 35.7
16:45 1023 30.21 852 25.16 9.9 49.8 59 2.2 36
16:50 1023 30.21 852 25.16 9.9 49.9 58 2.1 35.7
16:55 1023 30.21 852 25.16 9.9 49.9 58 2.2 35.9
17:00 1023 30.21 852 25.16 9.7 49.5 59 2.1 35.9
17:05 1023 30.21 852 25.16 9.6 49.3 59 2 35.7
17:10 1023 30.21 852 25.16 9.7 49.4 59 2 35.6
17:15 1023 30.21 852 25.16 9.5 49.1 59 1.9 35.4
17:20 1023 30.21 852 25.16 9.3 48.8 60 2 35.6
17:25 1023 30.21 852 25.16 9.2 48.6 60 2 35.5
17:30 1023 30.21 852 25.16 9.2 48.6 60 1.8 35.3
17:35 1023 30.21 852 25.16 9.1 48.4 61 1.9 35.5
17:40 1023 30.21 852 25.16 9 48.1 63 2.3 36.1
17:45 1023 30.21 852 25.16 8.4 47.1 64 2 35.6
17:50 1023 30.21 852 25.16 8.3 47 64 1.8 35.3
17:55 1023 30.21 852 25.16 8.3 47 63 1.7 35.1
18:00 1023 30.21 852 25.16 8.4 47 63 1.6 35
18:05 1023 30.21 852 25.16 8.3 46.9 63 1.8 35.2
18:10 1023 30.21 852 25.16 8.3 47 63 1.8 35.2
18:15 1023 30.21 853 25.19 8.5 47.2 63 1.8 35.2
18:20 1023 30.21 853 25.19 8.3 47 63 1.8 35.3
18:25 1023 30.21 853 25.19 8.1 46.6 64 1.8 35.2
18:30 1023 30.21 852 25.16 7.9 46.2 65 1.7 35.1
18:35 1023 30.21 852 25.16 7.8 46 65 1.7 35.1
18:40 1023 30.21 852 25.16 7.9 46.3 65 1.7 35.1
18:45 1023 30.21 852 25.16 8.8 47.8 60 1.6 34.9
18:50 1023 30.21 852 25.16 9.3 48.8 59 1.8 35.3
18:55 1023 30.21 852 25.16 9.5 49 59 2 35.5
19:00 1023 30.21 852 25.16 9.6 49.3 59 2 35.5
19:05 1023 30.21 852 25.16 9.7 49.5 59 2 35.7
19:10 1023 30.21 852 25.16 9.9 49.7 58 2 35.6
19:15 1023 30.21 853 25.19 9.7 49.5 59 2.1 35.7
19:20 1023 30.21 853 25.19 9.4 49 60 2 35.6
19:25 1023 30.21 853 25.19 9.2 48.6 60 2 35.5
19:30 1024 30.24 853 25.19 9 48.2 62 2.1 35.8
19:35 1024 30.24 853 25.19 8.5 47.2 64 2 35.6
19:40 1024 30.24 853 25.19 8.6 47.5 61 1.6 34.9
19:45 1024 30.24 853 25.19 9 48.3 61 2 35.5
19:50 1024 30.24 853 25.19 9.4 48.9 61 2.2 35.9
19:55 1024 30.24 853 25.19 9.8 49.6 60 2.3 36.1
20:00 1024 30.24 853 25.19 9.9 49.8 60 2.6 36.7
20:05 1024 30.24 854 25.22 9.6 49.3 61 2.5 36.4
20:10 1024 30.24 854 25.22 9.5 49.1 61 2.5 36.5
20:15 1024 30.24 854 25.22 9.2 48.6 62 2.3 36.1
20:20 1024 30.24 854 25.22 9.1 48.3 61 2 35.6
20:25 1024 30.24 854 25.22 9 48.1 61 2 35.6
20:30 1024 30.24 853 25.19 8.8 47.8 62 1.8 35.3
20:35 1024 30.24 853 25.19 9.1 48.4 60 1.9 35.4
20:40 1024 30.24 853 25.19 9.4 48.9 60 1.9 35.5
20:45 1024 30.24 853 25.19 9.5 49.2 59 2.1 35.7
20:50 1024 30.24 854 25.22 9.4 48.9 60 2 35.6
20:55 1024 30.24 854 25.22 9.2 48.6 61 2.1 35.8
21:00 1024 30.24 853 25.19 9 48.1 61 2 35.6
21:05 1024 30.24 853 25.19 9 48.2 61 1.9 35.4
21:10 1024 30.24 853 25.19 8.7 47.7 63 2.1 35.7
21:15 1024 30.24 853 25.19 8.4 47 64 2 35.6
21:20 1024 30.24 853 25.19 8.2 46.7 64 1.7 35.1
21:25 1024 30.24 854 25.22 8.2 46.8 63 1.7 35.1
21:30 1024 30.24 854 25.22 8.2 46.7 64 1.8 35.2
21:35 1024 30.24 854 25.22 8.2 46.8 64 1.7 35.1
21:40 1024 30.24 854 25.22 8.4 47.1 63 1.8 35.2
21:45 1024 30.24 854 25.22 8.5 47.4 62 1.7 35
21:50 1024 30.24 854 25.22 8.7 47.6 62 1.8 35.2
21:55 1024 30.24 854 25.22 8.5 47.4 63 1.9 35.4
22:00 1024 30.24 854 25.22 8.6 47.5 62 1.8 35.3
22:05 1024 30.24 854 25.22 8.7 47.7 62 1.8 35.2
22:10 1024 30.24 854 25.22 9 48.1 61 1.9 35.4
22:15 1025 30.27 854 25.22 9.1 48.4 61 1.9 35.5
22:20 1025 30.27 854 25.22 9.1 48.4 61 2 35.5
22:25 1025 30.27 854 25.22 9.2 48.6 60 2 35.6
22:30 1025 30.27 854 25.22 9.3 48.7 60 2 35.6
22:35 1025 30.27 854 25.22 9.2 48.6 60 1.8 35.3
22:40 1025 30.27 854 25.22 9.1 48.4 60 1.7 35.1
22:45 1025 30.27 854 25.22 9 48.1 60 1.7 35.1
22:50 1025 30.27 854 25.22 8.7 47.6 61 1.6 34.9
22:55 1025 30.27 854 25.22 8.6 47.6 60 1.3 34.3
23:00 1025 30.27 854 25.22 8.7 47.7 60 1.5 34.6
23:05 1025 30.27 854 25.22 8.6 47.5 61 1.5 34.7
23:10 1025 30.27 854 25.22 8.4 47 62 1.6 34.8
23:15 1025 30.27 854 25.22 8.1 46.7 62 1.3 34.4
23:20 1025 30.27 854 25.22 8.3 47 62 1.4 34.5
23:25 1025 30.27 854 25.22 8.4 47.1 61 1.4 34.5
23:30 1025 30.27 854 25.22 8.5 47.3 61 1.4 34.4
23:35 1025 30.27 854 25.22 8.5 47.3 61 1.5 34.6
23:40 1025 30.27 854 25.22 8.3 47 62 1.5 34.7
23:45 1025 30.27 854 25.22 8.1 46.5 62 1.3 34.3
23:50 1025 30.27 854 25.22 7.8 46 64 1.4 34.5
23:55 1025 30.27 855 25.25 7.9 46.1 63 1.2 34.2
24:00 1025 30.27 855 25.25 8 46.3 63 1.4 34.5